This is the latest recevied weather packets stored in our database for station/object OK1KKY-18. If no packets are shown the sender has not sent any weather packets the latest 10 day(s).
| Time | Temp. | Humidity | Pressure | Rain* | Wind** | Luminosity | Snow |
|---|---|---|---|---|---|---|---|
| 1777909559 | 21.67° C | 38% | 1013.1 hPa | - | - | - | - |
| 1777908958 | 22.22° C | 37% | 1013.2 hPa | - | - | - | - |
| 1777908358 | 22.22° C | 38% | 1013.2 hPa | - | - | - | - |
| 1777907763 | 22.22° C | 36% | 1013.3 hPa | - | - | - | - |
| 1777907157 | 22.22° C | 38% | 1013.3 hPa | - | - | - | - |
| 1777906557 | 22.78° C | 35% | 1013.3 hPa | - | - | - | - |
| 1777905957 | 22.78° C | 35% | 1013.3 hPa | - | - | - | - |
| 1777905357 | 22.78° C | 37% | 1013.4 hPa | - | - | - | - |
| 1777904757 | 22.78° C | 36% | 1013.4 hPa | - | - | - | - |
| 1777904157 | 23.33° C | 34% | 1013.4 hPa | - | - | - | - |
| 1777903557 | 23.89° C | 32% | 1013.5 hPa | - | - | - | - |
| 1777902957 | 24.44° C | 32% | 1013.4 hPa | - | - | - | - |
| 1777902357 | 23.89° C | 34% | 1013.5 hPa | - | - | - | - |
| 1777901757 | 23.33° C | 34% | 1013.6 hPa | - | - | - | - |
| 1777901157 | 22.78° C | 36% | 1013.6 hPa | - | - | - | - |
| 1777900558 | 23.33° C | 36% | 1013.8 hPa | - | - | - | - |
| 1777899957 | 22.78° C | 35% | 1013.9 hPa | - | - | - | - |
| 1777899357 | 22.78° C | 35% | 1014 hPa | - | - | - | - |
| 1777898757 | 22.78° C | 33% | 1014.2 hPa | - | - | - | - |
| 1777898157 | 22.22° C | 36% | 1014.3 hPa | - | - | - | - |
| 1777897557 | 21.67° C | 36% | 1014.3 hPa | - | - | - | - |
| 1777896957 | 21.67° C | 36% | 1014.3 hPa | - | - | - | - |
| 1777896357 | 21.11° C | 37% | 1014.3 hPa | - | - | - | - |
| 1777895757 | 21.67° C | 38% | 1014.5 hPa | - | - | - | - |
| 1777895158 | 21.67° C | 37% | 1014.5 hPa | - | - | - | - |
* Rain since midnight (hover to see other rain measurements)
** Current wind speed in m/s (hover to see current wind gust speed)